GCTS METAR and TAF | Updated Today

GCTS METAR

Tenerife South Airport

Observation time: 30 min. ago

GCTS 292030Z VRB01KT 9999 BKN038 23/18 Q1018 NOSIG

Need help? Read our tutorial on how to read METARs or read the parsed version below.

Tenerife South Airport (GCTS) METAR

  • Weather conditions on Thu, 29 Sep 2022 20:30:00 +0000 (30 min. ago):
  • Present conditions: Dry
  • Clouds: Broken sky at 1158 meters
  • Visibility: Greater than 10 km
  • Wind: Variable at 1 knots
  • Temperature: 23 celsius
  • Dew point: 18 celsius
  • Pressure: 1018 millibars
  • Remarks: None


Useful to know...

GCTS TAF

Tenerife South Airport

TAF GCTS 292000Z 2921/3021 05006KT 9999 BKN035 TX26/3014Z TN20/3006Z PROB40 TEMPO 3015/3021 24010KT
Observation time: 60 min. ago
Need help? Read our tutorial on how to read TAFs or read the parsed version below.

Parsed version of TAF for Tenerife South Airport (GCTS)

  • From 29 September at 21:00 UTC, to day 30 of the month at 21:00 UTC
  • Clouds: Broken sky at 1067 meters
  • Visibility: Greater than 10 km
  • Wind: 50 degrees at 6
  • Expected to arise temporarily, from 30 September at 15:00 UTC, to day 30 of the month at 21:00 UTC
    Probability of 40%
  • Wind: 240 degrees at 10

Airports near GCTS

GCGM Weather
Region: Alajero, La Gomera Island

La Gomera Airport

Not found in our database
GCXO Weather
IATA: TFN
Region: Tenerife Island

Tenerife Norte Airport

Found in our database